createdAt,value
2022-09-16T00:00:58.479Z,77.61
2022-09-16T00:04:02.479Z,75.47
2022-09-16T00:06:47.267Z,74.73
2022-09-16T00:09:31.949Z,72.82
2022-09-16T00:12:16.542Z,73.37
2022-09-16T00:14:52.140Z,72.22
2022-09-16T00:17:38.393Z,72.15
2022-09-16T00:20:48.076Z,69.78
2022-09-16T00:23:27.060Z,69.18
2022-09-16T00:26:21.357Z,67.86
2022-09-16T00:28:59.782Z,68.97
2022-09-16T00:31:43.465Z,68.31
2022-09-16T00:34:32.197Z,69.14
2022-09-16T00:37:34.249Z,69.11
2022-09-16T00:40:21.820Z,68.85
2022-09-16T00:43:01.898Z,69.09
2022-09-16T00:45:39.605Z,69.57
2022-09-16T00:48:32.035Z,67.71
2022-09-16T00:51:27.407Z,67.66
2022-09-16T00:54:30.377Z,68.47
2022-09-16T00:57:41.640Z,68.87
2022-09-16T01:00:22.804Z,68.01
2022-09-16T01:03:19.992Z,66.60
2022-09-16T01:06:04.044Z,66.51
2022-09-16T01:08:45.996Z,65.51
2022-09-16T01:11:26.871Z,65.04
2022-09-16T01:14:34.379Z,65.43
2022-09-16T01:17:34.267Z,66.09
2022-09-16T01:20:51.801Z,63.49
2022-09-16T01:24:14.769Z,63.07
2022-09-16T01:27:51.475Z,62.30
2022-09-16T01:30:49.446Z,63.16
2022-09-16T01:33:41.763Z,63.83
2022-09-16T01:36:32.749Z,62.66
2022-09-16T01:39:50.786Z,60.73
2022-09-16T01:42:45.717Z,61.16
2022-09-16T01:45:39.665Z,60.42
2022-09-16T01:48:39.515Z,59.07
2022-09-16T01:51:26.419Z,58.26
2022-09-16T01:54:17.583Z,58.59
2022-09-16T01:57:19.411Z,59.80
2022-09-16T02:00:09.600Z,58.97
2022-09-16T02:02:48.971Z,58.47
2022-09-16T02:08:35.758Z,59.44
2022-09-16T02:11:12.336Z,59.15
2022-09-16T02:13:57.743Z,58.46
2022-09-16T02:16:41.929Z,58.87
2022-09-16T02:19:33.017Z,57.73
2022-09-16T02:22:21.211Z,57.83
2022-09-16T02:24:57.488Z,54.70
2022-09-16T02:27:41.104Z,54.17
2022-09-16T02:30:40.752Z,53.70
2022-09-16T02:33:23.606Z,51.89
2022-09-16T02:36:12.806Z,52.94
2022-09-16T02:38:55.899Z,52.71
2022-09-16T02:41:33.265Z,53.34
2022-09-16T02:44:15.349Z,52.88
2022-09-16T02:46:59.886Z,52.93
2022-09-16T02:49:46.821Z,52.71
2022-09-16T02:52:38.551Z,52.50
2022-09-16T02:55:34.998Z,51.37
2022-09-16T02:58:17.698Z,54.79
2022-09-16T03:00:58.035Z,56.20
2022-09-16T03:03:43.221Z,55.10
2022-09-16T03:06:47.829Z,54.34
2022-09-16T03:09:51.454Z,54.37
2022-09-16T03:13:10.648Z,57.65
2022-09-16T03:16:27.535Z,55.22
2022-09-16T03:19:14.708Z,56.41
2022-09-16T03:22:09.645Z,57.58
2022-09-16T03:25:13.904Z,55.64
2022-09-16T03:28:00.968Z,54.81
2022-09-16T03:30:50.142Z,54.92
2022-09-16T03:33:34.919Z,54.12
2022-09-16T03:36:31.798Z,54.24
2022-09-16T03:39:28.384Z,54.05
2022-09-16T03:42:17.476Z,52.98
2022-09-16T03:45:04.732Z,51.17
2022-09-16T03:47:58.364Z,53.49
2022-09-16T03:50:44.836Z,54.12
2022-09-16T03:53:31.498Z,52.20
2022-09-16T03:56:20.760Z,53.83
2022-09-16T03:59:14.626Z,53.93
2022-09-16T04:01:59.641Z,54.74
2022-09-16T04:04:40.437Z,54.74
2022-09-16T04:07:16.421Z,54.32
2022-09-16T04:09:57.439Z,52.98
2022-09-16T04:12:40.044Z,52.17
2022-09-16T04:15:26.109Z,51.34
2022-09-16T04:18:06.152Z,51.52
2022-09-16T04:20:47.555Z,51.63
2022-09-16T04:23:34.785Z,51.79
2022-09-16T04:29:22.544Z,52.47
2022-09-16T04:32:05.298Z,53.74
2022-09-16T04:35:07.289Z,52.58
2022-09-16T04:38:01.844Z,52.62
2022-09-16T04:40:40.596Z,53.57
2022-09-16T04:43:35.042Z,53.70
2022-09-16T04:46:16.471Z,53.38
2022-09-16T04:48:56.364Z,52.94
2022-09-16T04:51:50.888Z,53.84
2022-09-16T04:54:40.740Z,53.42
2022-09-16T04:57:22.603Z,53.58
2022-09-16T05:00:06.637Z,54.01
2022-09-16T05:02:57.256Z,54.21
2022-09-16T05:05:38.671Z,53.15
2022-09-16T05:08:33.654Z,53.15
2022-09-16T05:11:24.841Z,53.14
2022-09-16T05:14:22.629Z,52.45
2022-09-16T05:17:39.556Z,52.70
2022-09-16T05:20:12.799Z,51.44
2022-09-16T05:23:00.558Z,50.59
2022-09-16T05:25:46.950Z,50.65
2022-09-16T05:28:25.893Z,49.62
2022-09-16T05:31:06.339Z,50.28
2022-09-16T05:36:48.663Z,50.44
2022-09-16T05:39:33.066Z,51.17
2022-09-16T05:42:40.386Z,52.06
2022-09-16T05:45:23.186Z,52.28
2022-09-16T05:48:12.938Z,52.14
2022-09-16T05:50:57.925Z,51.43
2022-09-16T05:53:54.018Z,50.72
2022-09-16T05:56:40.176Z,49.19
2022-09-16T05:59:25.785Z,48.96
2022-09-16T06:02:08.149Z,49.53
2022-09-16T06:04:48.477Z,50.32
2022-09-16T06:07:32.506Z,51.40
2022-09-16T06:10:11.157Z,52.45
2022-09-16T06:12:55.291Z,53.28
2022-09-16T06:15:43.668Z,53.64
2022-09-16T06:18:27.753Z,53.87
2022-09-16T06:21:16.289Z,53.91
2022-09-16T06:23:51.217Z,54.38
2022-09-16T06:26:41.994Z,54.68
2022-09-16T06:29:31.291Z,54.29
2022-09-16T06:32:18.451Z,54.17
2022-09-16T06:34:56.822Z,54.62
2022-09-16T06:37:34.881Z,54.81
2022-09-16T06:40:13.811Z,54.69
2022-09-16T06:42:55.230Z,54.52
2022-09-16T06:45:37.153Z,54.08
2022-09-16T06:48:47.117Z,54.74
2022-09-16T06:51:26.693Z,54.29
2022-09-16T06:54:08.629Z,55.21
2022-09-16T06:56:55.073Z,54.81
2022-09-16T06:59:37.488Z,55.42
2022-09-16T07:02:46.944Z,55.71
2022-09-16T07:05:27.304Z,55.51
2022-09-16T07:08:14.769Z,55.63
2022-09-16T07:10:53.546Z,55.76
2022-09-16T07:13:37.672Z,56.21
2022-09-16T07:16:19.327Z,56.62
2022-09-16T07:19:14.556Z,56.93
2022-09-16T07:22:00.763Z,57.51
2022-09-16T07:24:35.441Z,57.63
2022-09-16T07:27:23.511Z,57.56
2022-09-16T07:30:08.217Z,57.74
2022-09-16T07:32:47.111Z,57.58
2022-09-16T07:35:24.430Z,57.98
2022-09-16T07:38:22.696Z,58.34
2022-09-16T07:40:57.689Z,59.01
2022-09-16T07:43:34.433Z,59.70
2022-09-16T07:46:16.494Z,60.35
2022-09-16T07:48:55.168Z,60.58
2022-09-16T07:51:43.066Z,60.82
2022-09-16T07:54:44.474Z,61.42
2022-09-16T07:57:22.660Z,61.76
2022-09-16T08:00:26.481Z,62.67
2022-09-16T08:03:16.729Z,63.11
2022-09-16T08:06:02.637Z,63.74
2022-09-16T08:08:48.297Z,64.68
2022-09-16T08:11:27.598Z,65.28
2022-09-16T08:14:21.429Z,65.24
2022-09-16T08:20:28.093Z,66.54
2022-09-16T08:23:13.948Z,67.14
2022-09-16T08:26:21.264Z,67.61
2022-09-16T08:29:12.813Z,68.33
2022-09-16T08:31:51.753Z,69.09
2022-09-16T08:34:28.803Z,69.72
2022-09-16T08:37:22.508Z,69.96
2022-09-16T08:40:09.786Z,70.67
2022-09-16T08:43:01.453Z,71.16
2022-09-16T08:45:49.359Z,71.41
2022-09-16T08:48:45.700Z,72.00
2022-09-16T08:51:34.014Z,72.75
2022-09-16T08:54:30.806Z,73.20
2022-09-16T08:57:15.650Z,73.80
2022-09-16T09:03:02.094Z,74.50
2022-09-16T09:05:54.288Z,75.61
2022-09-16T09:11:39.307Z,76.39
2022-09-16T09:14:35.124Z,76.98
2022-09-16T09:20:56.002Z,78.43
2022-09-16T09:24:02.394Z,79.07
2022-09-16T09:30:16.612Z,80.63
2022-09-16T09:33:44.404Z,81.06
2022-09-16T09:37:01.994Z,81.50
2022-09-16T09:40:04.030Z,81.93
2022-09-16T09:42:55.527Z,82.02
2022-09-16T09:45:37.784Z,82.09
2022-09-16T09:48:37.202Z,82.12
2022-09-16T09:51:38.140Z,82.43
2022-09-16T09:54:40.184Z,82.85
2022-09-16T09:57:31.250Z,83.11
2022-09-16T10:00:27.028Z,83.82
2022-09-16T10:03:35.312Z,84.34
2022-09-16T10:06:27.690Z,85.15
2022-09-16T10:09:14.799Z,85.34
2022-09-16T10:12:14.212Z,85.53
2022-09-16T10:15:07.640Z,85.94
2022-09-16T10:17:47.199Z,86.17
2022-09-16T10:20:43.262Z,86.08
2022-09-16T10:23:31.821Z,85.86
2022-09-16T10:26:31.203Z,85.85
2022-09-16T10:29:24.718Z,85.83
2022-09-16T10:32:12.155Z,85.70
2022-09-16T10:34:58.478Z,85.96
2022-09-16T10:37:47.180Z,86.09
2022-09-16T10:40:31.759Z,86.32
2022-09-16T10:43:09.785Z,86.71
2022-09-16T10:46:05.953Z,86.97
2022-09-16T10:48:54.815Z,87.32
2022-09-16T10:51:44.338Z,87.36
2022-09-16T10:54:34.425Z,87.45
2022-09-16T10:57:11.197Z,87.71
2022-09-16T11:00:16.907Z,87.62
2022-09-16T11:03:24.600Z,87.84
2022-09-16T11:06:19.511Z,88.03
2022-09-16T11:09:08.242Z,88.17
2022-09-16T11:12:17.516Z,88.58
2022-09-16T11:15:03.462Z,88.79
2022-09-16T11:18:06.705Z,88.24
2022-09-16T11:21:44.687Z,88.87
2022-09-16T11:24:56.495Z,88.91
2022-09-16T11:27:51.699Z,89.23
2022-09-16T11:30:51.747Z,89.11
2022-09-16T11:33:41.955Z,89.49
2022-09-16T11:37:09.415Z,89.86
2022-09-16T11:40:25.344Z,89.95
2022-09-16T11:43:33.180Z,90.12
2022-09-16T11:46:22.574Z,90.33
2022-09-16T11:49:14.826Z,90.14
2022-09-16T11:52:04.920Z,90.62
2022-09-16T11:55:05.574Z,90.63
2022-09-16T11:57:55.137Z,91.12
2022-09-16T12:00:35.630Z,91.20
2022-09-16T12:03:46.356Z,91.03
2022-09-16T12:06:51.474Z,90.60
2022-09-16T12:09:50.673Z,90.63
2022-09-16T12:15:46.236Z,90.83
2022-09-16T12:18:34.580Z,91.02
2022-09-16T12:21:28.815Z,91.39
2022-09-16T12:24:21.700Z,91.39
2022-09-16T12:27:33.344Z,91.67
2022-09-16T12:30:22.635Z,91.49
2022-09-16T12:33:11.084Z,91.32
2022-09-16T12:36:04.921Z,91.02
2022-09-16T12:38:47.716Z,90.88
2022-09-16T12:41:48.487Z,90.80
2022-09-16T12:45:19.608Z,90.68
2022-09-16T12:48:22.871Z,90.75
2022-09-16T12:51:41.675Z,90.74
2022-09-16T12:55:07.594Z,90.47
2022-09-16T12:58:20.216Z,90.43
2022-09-16T13:01:24.710Z,90.80
2022-09-16T13:07:30.063Z,91.15
2022-09-16T13:10:40.396Z,91.10
2022-09-16T13:13:34.686Z,90.91
2022-09-16T13:16:17.591Z,91.08
2022-09-16T13:19:28.705Z,90.76
2022-09-16T13:22:11.709Z,91.15
2022-09-16T13:24:52.649Z,91.38
2022-09-16T13:27:52.497Z,91.45
2022-09-16T13:31:12.035Z,91.55
2022-09-16T13:33:51.465Z,91.27
2022-09-16T13:36:47.149Z,90.86
2022-09-16T13:39:41.398Z,90.80
2022-09-16T13:45:38.026Z,90.66
2022-09-16T13:48:24.585Z,90.78
2022-09-16T13:51:10.775Z,90.51
2022-09-16T13:54:08.498Z,90.67
2022-09-16T13:57:17.040Z,90.64
2022-09-16T14:00:12.432Z,90.25
2022-09-16T14:03:26.779Z,89.87
2022-09-16T14:06:48.169Z,90.19
2022-09-16T14:09:55.110Z,89.90
2022-09-16T14:12:51.395Z,90.19
2022-09-16T14:15:29.804Z,89.96
2022-09-16T14:18:13.341Z,89.92
2022-09-16T14:21:12.930Z,90.05
2022-09-16T14:26:40.199Z,90.00
2022-09-16T14:29:29.053Z,89.97
2022-09-16T14:32:34.178Z,90.68
2022-09-16T14:35:32.999Z,90.90
2022-09-16T14:38:45.060Z,90.97
2022-09-16T14:41:43.750Z,91.80
2022-09-16T14:44:45.306Z,91.79
2022-09-16T14:47:47.373Z,91.58
2022-09-16T14:50:44.911Z,91.70
2022-09-16T14:53:36.293Z,91.74
2022-09-16T14:56:23.433Z,91.47
2022-09-16T14:59:02.226Z,92.02
2022-09-16T15:02:03.541Z,92.32
2022-09-16T15:08:13.545Z,92.38
2022-09-16T15:11:03.874Z,92.44
2022-09-16T15:13:43.617Z,92.46
2022-09-16T15:16:35.938Z,92.12
2022-09-16T15:19:27.440Z,92.13
2022-09-16T15:22:03.375Z,92.33
2022-09-16T15:27:35.723Z,92.69
2022-09-16T15:30:28.835Z,92.55
2022-09-16T15:33:32.506Z,93.09
2022-09-16T15:36:36.958Z,92.96
2022-09-16T15:39:32.960Z,93.11
2022-09-16T15:42:28.337Z,92.75
2022-09-16T15:45:12.552Z,92.95
2022-09-16T15:48:05.531Z,92.98
2022-09-16T15:53:58.406Z,92.62
2022-09-16T15:56:44.716Z,92.41
2022-09-16T15:59:49.842Z,92.65
2022-09-16T16:02:31.826Z,92.22
2022-09-16T16:05:25.733Z,92.17
2022-09-16T16:08:07.629Z,92.17
2022-09-16T16:11:17.942Z,91.66
2022-09-16T16:14:02.279Z,91.57
2022-09-16T16:17:19.061Z,91.78
2022-09-16T16:20:03.341Z,91.87
2022-09-16T16:22:55.140Z,92.16
2022-09-16T16:25:47.853Z,92.00
2022-09-16T16:31:26.875Z,91.91
2022-09-16T16:34:18.128Z,91.47
2022-09-16T16:37:33.824Z,91.51
2022-09-16T16:40:17.808Z,91.42
2022-09-16T16:42:51.330Z,91.77
2022-09-16T16:48:32.823Z,92.04
2022-09-16T16:51:26.520Z,91.83
2022-09-16T16:54:06.080Z,91.57
2022-09-16T16:57:01.624Z,91.55
2022-09-16T16:59:47.274Z,91.57
2022-09-16T17:02:42.996Z,91.60
2022-09-16T17:05:20.002Z,91.88
2022-09-16T17:08:06.439Z,92.19
2022-09-16T17:10:58.008Z,92.30
2022-09-16T17:13:40.529Z,91.76
2022-09-16T17:16:17.593Z,92.18
2022-09-16T17:19:00.617Z,92.41
2022-09-16T17:21:50.830Z,92.30
2022-09-16T17:24:32.039Z,92.40
2022-09-16T17:27:18.267Z,92.23
2022-09-16T17:32:56.753Z,91.99
2022-09-16T17:35:44.969Z,91.62
2022-09-16T17:38:36.864Z,91.46
2022-09-16T17:41:23.972Z,91.30
2022-09-16T17:44:01.053Z,91.01
2022-09-16T17:47:03.548Z,91.11
2022-09-16T17:49:41.431Z,91.41
2022-09-16T17:52:23.795Z,91.26
2022-09-16T17:55:09.780Z,91.15
2022-09-16T17:58:05.798Z,91.27
2022-09-16T18:00:42.567Z,91.06
2022-09-16T18:03:29.801Z,91.64
2022-09-16T18:06:36.905Z,92.71
2022-09-16T18:09:23.574Z,93.30
2022-09-16T18:12:10.279Z,93.96
2022-09-16T18:14:48.144Z,94.02
2022-09-16T18:17:34.784Z,94.06
2022-09-16T18:20:21.910Z,93.88
2022-09-16T18:23:13.612Z,93.43
2022-09-16T18:25:53.670Z,93.26
2022-09-16T18:28:58.530Z,93.21
2022-09-16T18:31:45.733Z,92.95
2022-09-16T18:34:33.215Z,93.02
2022-09-16T18:37:35.977Z,92.48
2022-09-16T18:40:18.336Z,92.61
2022-09-16T18:43:05.721Z,92.88
2022-09-16T18:45:43.595Z,92.96
2022-09-16T18:48:29.317Z,93.16
2022-09-16T18:51:07.107Z,93.33
2022-09-16T18:53:54.662Z,94.10
2022-09-16T18:56:34.531Z,94.94
2022-09-16T18:59:43.231Z,95.63
2022-09-16T19:02:33.377Z,96.07
2022-09-16T19:05:29.114Z,96.18
2022-09-16T19:08:13.454Z,96.37
2022-09-16T19:11:05.636Z,96.77
2022-09-16T19:13:42.941Z,96.75
2022-09-16T19:16:27.509Z,97.10
2022-09-16T19:19:20.127Z,97.75
2022-09-16T19:22:06.019Z,97.78
2022-09-16T19:24:57.658Z,97.99
2022-09-16T19:27:45.997Z,98.35
2022-09-16T19:30:23.375Z,98.62
2022-09-16T19:33:23.475Z,98.74
2022-09-16T19:36:29.703Z,98.96
2022-09-16T19:39:07.014Z,98.83
2022-09-16T19:41:48.232Z,98.58
2022-09-16T19:44:56.175Z,98.55
2022-09-16T19:50:54.242Z,97.91
2022-09-16T19:53:55.714Z,97.83
2022-09-16T19:56:50.158Z,97.26
2022-09-16T19:59:36.848Z,96.23
2022-09-16T20:02:20.220Z,95.59
2022-09-16T20:05:04.972Z,95.30
2022-09-16T20:08:00.993Z,94.51
2022-09-16T20:10:51.632Z,93.74
2022-09-16T20:13:30.571Z,92.75
2022-09-16T20:16:08.512Z,92.58
2022-09-16T20:18:54.843Z,92.69
2022-09-16T20:21:40.712Z,92.99
2022-09-16T20:24:33.377Z,93.48
2022-09-16T20:27:13.700Z,94.20
2022-09-16T20:30:07.616Z,94.03
2022-09-16T20:32:48.404Z,93.70
2022-09-16T20:35:27.625Z,93.67
2022-09-16T20:38:06.704Z,93.39
2022-09-16T20:41:11.293Z,93.29
2022-09-16T20:44:15.995Z,93.69
2022-09-16T20:46:55.274Z,94.44
2022-09-16T20:49:43.182Z,94.54
2022-09-16T20:52:37.267Z,94.38
2022-09-16T20:55:26.911Z,94.27
2022-09-16T20:58:12.345Z,94.79
2022-09-16T21:00:56.635Z,94.86
2022-09-16T21:03:37.055Z,94.90
2022-09-16T21:06:17.704Z,94.94
2022-09-16T21:09:14.215Z,94.74
2022-09-16T21:11:53.896Z,94.76
2022-09-16T21:14:42.967Z,94.80
2022-09-16T21:17:34.471Z,95.01
2022-09-16T21:20:38.323Z,94.99
2022-09-16T21:23:17.238Z,94.44
2022-09-16T21:26:01.761Z,93.87
2022-09-16T21:29:04.503Z,93.58
2022-09-16T21:31:55.704Z,92.46
2022-09-16T21:34:48.522Z,92.05
2022-09-16T21:37:35.451Z,91.65
2022-09-16T21:40:10.385Z,91.51
2022-09-16T21:42:52.143Z,91.49
2022-09-16T21:45:37.488Z,91.24
2022-09-16T21:48:36.586Z,91.27
2022-09-16T21:51:27.789Z,91.16
2022-09-16T21:54:20.737Z,90.99
2022-09-16T21:56:58.946Z,90.60
2022-09-16T21:59:46.709Z,89.59
2022-09-16T22:02:34.487Z,89.36
2022-09-16T22:05:27.029Z,88.78
2022-09-16T22:11:00.595Z,87.03
2022-09-16T22:13:47.753Z,86.95
2022-09-16T22:16:38.586Z,87.29
2022-09-16T22:19:15.691Z,87.32
2022-09-16T22:21:57.313Z,87.46
2022-09-16T22:24:50.762Z,87.45
2022-09-16T22:27:35.444Z,86.91
2022-09-16T22:30:11.420Z,86.78
2022-09-16T22:32:50.524Z,86.72
2022-09-16T22:35:42.114Z,86.11
2022-09-16T22:38:30.098Z,86.38
2022-09-16T22:41:24.561Z,86.11
2022-09-16T22:44:03.426Z,85.55
2022-09-16T22:46:51.305Z,84.65
2022-09-16T22:49:31.212Z,84.46
2022-09-16T22:52:07.072Z,84.52
2022-09-16T22:55:02.345Z,85.03
2022-09-16T22:57:39.490Z,84.55
2022-09-16T23:00:34.462Z,85.03
2022-09-16T23:03:12.646Z,84.27
2022-09-16T23:06:00.533Z,84.06
2022-09-16T23:08:44.857Z,83.73
2022-09-16T23:11:33.373Z,83.57
2022-09-16T23:14:18.824Z,83.05
2022-09-16T23:17:11.064Z,82.16
2022-09-16T23:20:00.653Z,81.89
2022-09-16T23:22:38.329Z,80.86
2022-09-16T23:25:24.094Z,80.33
2022-09-16T23:28:11.809Z,80.62
2022-09-16T23:30:57.921Z,80.18
2022-09-16T23:33:46.334Z,79.14
2022-09-16T23:36:26.295Z,78.90
2022-09-16T23:39:07.705Z,79.05
2022-09-16T23:41:47.645Z,78.70
2022-09-16T23:44:24.761Z,78.83
2022-09-16T23:47:10.796Z,78.97
2022-09-16T23:49:52.847Z,78.11
2022-09-16T23:52:28.536Z,78.02
2022-09-16T23:58:07.395Z,76.56
